Los Angeles, Argentina
Current Conditions -  °F | °C
As of 5:00 PM on Friday 28 Nov 2014 (Local Time) from SANT Reporting Station
Scattered Clouds Scattered Clouds  
Wind Chill: 35°   Ceiling: Unl
Heat Index: 38°   Visibility: 6mi
Dew Point: 21°   Wind: 5mph
Humidity: 44%   Direction: 90°E
Pressure: 29.65"   Gusts: NA
Location:  28.54°S, 65.95°W
Report Text: SANT 282000Z 09004KT 9999 SCT035 SCT04035/21 Q1004
Loading
Personal Weather Stations






























Interactive Weather Map New forecast layout! Learn more

10-Day Weather Forecast

Advertisements
Track Severe Weather on mobile